sensor_id;sensor_type;location;lat;lon;timestamp;temperature;humidity
71551;DHT22;59367;48.414;9.872;2022-12-18T00:00:04;-1.652553558;65.92407227
71551;DHT22;59367;48.414;9.872;2022-12-18T00:01:18;-1.652553558;66.0446167
71551;DHT22;59367;48.414;9.872;2022-12-18T00:02:26;-1.724651337;66.20330811
71551;DHT22;59367;48.414;9.872;2022-12-18T00:03:33;-1.738002777;66.44287109
71551;DHT22;59367;48.414;9.872;2022-12-18T00:04:41;-1.738002777;66.46118164
71551;DHT22;59367;48.414;9.872;2022-12-18T00:05:55;-1.724651337;66.43676758
71551;DHT22;59367;48.414;9.872;2022-12-18T00:07:02;-1.738002777;66.40625
71551;DHT22;59367;48.414;9.872;2022-12-18T00:08:10;-1.724651337;66.47338867
71551;DHT22;59367;48.414;9.872;2022-12-18T00:09:17;-1.751354218;66.5435791
71551;DHT22;59367;48.414;9.872;2022-12-18T00:10:25;-1.751354218;66.53442383
71551;DHT22;59367;48.414;9.872;2022-12-18T00:11:34;-1.724651337;66.50085449
71551;DHT22;59367;48.414;9.872;2022-12-18T00:12:42;-1.738002777;66.44287109
71551;DHT22;59367;48.414;9.872;2022-12-18T00:13:49;-1.724651337;66.33300781
71551;DHT22;59367;48.414;9.872;2022-12-18T00:14:57;-1.708629608;66.24145508
71551;DHT22;59367;48.414;9.872;2022-12-18T00:16:10;-1.708629608;66.17736816
71551;DHT22;59367;48.414;9.872;2022-12-18T00:17:18;-1.724651337;66.14532471
71551;DHT22;59367;48.414;9.872;2022-12-18T00:18:25;-1.695278168;66.18652344
71551;DHT22;59367;48.414;9.872;2022-12-18T00:19:33;-1.695278168;66.18652344
71551;DHT22;59367;48.414;9.872;2022-12-18T00:20:43;-1.708629608;66.15753174
71551;DHT22;59367;48.414;9.872;2022-12-18T00:21:50;-1.681926727;66.14379883
71551;DHT22;59367;48.414;9.872;2022-12-18T00:22:58;-1.695278168;66.15905762
71551;DHT22;59367;48.414;9.872;2022-12-18T00:24:06;-1.665904999;66.07208252
71551;DHT22;59367;48.414;9.872;2022-12-18T00:25:14;-1.639202118;65.96221924
71551;DHT22;59367;48.414;9.872;2022-12-18T00:26:23;-1.639202118;65.81420898
71551;DHT22;59367;48.414;9.872;2022-12-18T00:27:31;-1.665904999;65.69671631
71551;DHT22;59367;48.414;9.872;2022-12-18T00:28:39;-1.708629608;65.62805176
71551;DHT22;59367;48.414;9.872;2022-12-18T00:29:46;-1.724651337;65.6539917
71551;DHT22;59367;48.414;9.872;2022-12-18T00:31:03;-1.724651337;65.67230225
71551;DHT22;59367;48.414;9.872;2022-12-18T00:32:11;-1.724651337;65.76538086
71551;DHT22;59367;48.414;9.872;2022-12-18T00:33:18;-1.695278168;65.72418213
71551;DHT22;59367;48.414;9.872;2022-12-18T00:34:26;-1.708629608;65.77758789
71551;DHT22;59367;48.414;9.872;2022-12-18T00:35:34;-1.681926727;65.71502686
71551;DHT22;59367;48.414;9.872;2022-12-18T00:36:43;-1.695278168;65.72418213
71551;DHT22;59367;48.414;9.872;2022-12-18T00:37:50;-1.708629608;65.69213867
71551;DHT22;59367;48.414;9.872;2022-12-18T00:38:58;-1.681926727;65.62194824
71551;DHT22;59367;48.414;9.872;2022-12-18T00:40:07;-1.681926727;65.63110352
71551;DHT22;59367;48.414;9.872;2022-12-18T00:41:17;-1.708629608;65.66467285
71551;DHT22;59367;48.414;9.872;2022-12-18T00:42:25;-1.708629608;65.59143066
71551;DHT22;59367;48.414;9.872;2022-12-18T00:43:33;-1.681926727;65.65093994
71551;DHT22;59367;48.414;9.872;2022-12-18T00:44:40;-1.681926727;65.68756104
71551;DHT22;59367;48.414;9.872;2022-12-18T00:45:48;-1.695278168;65.71350098
71551;DHT22;59367;48.414;9.872;2022-12-18T00:46:56;-1.681926727;65.70587158
71551;DHT22;59367;48.414;9.872;2022-12-18T00:48:03;-1.665904999;65.77301025
71551;DHT22;59367;48.414;9.872;2022-12-18T00:49:11;-1.665904999;65.77301025
71551;DHT22;59367;48.414;9.872;2022-12-18T00:50:19;-1.652553558;65.73638916
71551;DHT22;59367;48.414;9.872;2022-12-18T00:51:27;-1.652553558;65.75622559
71551;DHT22;59367;48.414;9.872;2022-12-18T00:52:35;-1.681926727;65.75164795
71551;DHT22;59367;48.414;9.872;2022-12-18T00:53:42;-1.681926727;65.87371826
71551;DHT22;59367;48.414;9.872;2022-12-18T00:54:50;-1.708629608;65.81420898
71551;DHT22;59367;48.414;9.872;2022-12-18T00:55:57;-1.695278168;65.8706665
71551;DHT22;59367;48.414;9.872;2022-12-18T00:57:05;-1.665904999;65.81878662
71551;DHT22;59367;48.414;9.872;2022-12-18T00:58:13;-1.681926727;65.70587158
71551;DHT22;59367;48.414;9.872;2022-12-18T00:59:22;-1.652553558;65.66314697
71551;DHT22;59367;48.414;9.872;2022-12-18T01:00:29;-1.681926727;65.53039551
71551;DHT22;59367;48.414;9.872;2022-12-18T01:01:37;-1.681926727;65.29693604
71551;DHT22;59367;48.414;9.872;2022-12-18T01:02:44;-1.681926727;65.3717041
71551;DHT22;59367;48.414;9.872;2022-12-18T01:03:52;-1.681926727;65.48156738
71551;DHT22;59367;48.414;9.872;2022-12-18T01:04:59;-1.681926727;65.45410156
71551;DHT22;59367;48.414;9.872;2022-12-18T01:06:14;-1.681926727;65.4083252
71551;DHT22;59367;48.414;9.872;2022-12-18T01:07:21;-1.665904999;65.42053223
71551;DHT22;59367;48.414;9.872;2022-12-18T01:08:29;-1.625850677;65.44342041
71551;DHT22;59367;48.414;9.872;2022-12-18T01:09:36;-1.639202118;65.48919678
71551;DHT22;59367;48.414;9.872;2022-12-18T01:10:46;-1.625850677;65.50750732
71551;DHT22;59367;48.414;9.872;2022-12-18T01:11:54;-1.639202118;65.39459229
71551;DHT22;59367;48.414;9.872;2022-12-18T01:13:02;-1.695278168;64.94140625
71551;DHT22;59367;48.414;9.872;2022-12-18T01:14:09;-1.708629608;65.08789063
71551;DHT22;59367;48.414;9.872;2022-12-18T01:15:19;-1.681926727;65.22369385
71551;DHT22;59367;48.414;9.872;2022-12-18T01:16:27;-1.681926727;65.12908936
71551;DHT22;59367;48.414;9.872;2022-12-18T01:17:35;-1.665904999;65.15960693
71551;DHT22;59367;48.414;9.872;2022-12-18T01:18:43;-1.652553558;65.16876221
71551;DHT22;59367;48.414;9.872;2022-12-18T01:19:50;-1.639202118;65.0970459
71551;DHT22;59367;48.414;9.872;2022-12-18T01:20:58;-1.609825134;64.99023438
71551;DHT22;59367;48.414;9.872;2022-12-18T01:22:05;-1.625850677;64.90325928
71551;DHT22;59367;48.414;9.872;2022-12-18T01:23:13;-1.625850677;64.76287842
71551;DHT22;59367;48.414;9.872;2022-12-18T01:24:20;-1.625850677;64.75372314
71551;DHT22;59367;48.414;9.872;2022-12-18T01:25:28;-1.652553558;64.44244385
71551;DHT22;59367;48.414;9.872;2022-12-18T01:26:35;-1.665904999;64.54315186
71551;DHT22;59367;48.414;9.872;2022-12-18T01:27:43;-1.665904999;64.55230713
71551;DHT22;59367;48.414;9.872;2022-12-18T01:28:50;-1.652553558;64.46990967
71551;DHT22;59367;48.414;9.872;2022-12-18T01:29:58;-1.665904999;64.44244385
71551;DHT22;59367;48.414;9.872;2022-12-18T01:31:18;-1.681926727;64.57061768
71551;DHT22;59367;48.414;9.872;2022-12-18T01:32:26;-1.708629608;64.57519531
71551;DHT22;59367;48.414;9.872;2022-12-18T01:33:33;-1.708629608;64.59350586
71551;DHT22;59367;48.414;9.872;2022-12-18T01:34:41;-1.724651337;64.50042725
71551;DHT22;59367;48.414;9.872;2022-12-18T01:35:49;-1.724651337;64.53704834
71551;DHT22;59367;48.414;9.872;2022-12-18T01:36:56;-1.708629608;64.52941895
71551;DHT22;59367;48.414;9.872;2022-12-18T01:38:04;-1.738002777;64.53399658
71551;DHT22;59367;48.414;9.872;2022-12-18T01:39:14;-1.751354218;64.52484131
71551;DHT22;59367;48.414;9.872;2022-12-18T01:40:22;-1.724651337;64.52789307
71551;DHT22;59367;48.414;9.872;2022-12-18T01:41:32;-1.724651337;64.55535889
71551;DHT22;59367;48.414;9.872;2022-12-18T01:42:41;-1.751354218;64.5614624
71551;DHT22;59367;48.414;9.872;2022-12-18T01:43:57;-1.764705658;64.52331543
71551;DHT22;59367;48.414;9.872;2022-12-18T01:45:20;-1.751354218;64.58892822
71551;DHT22;59367;48.414;9.872;2022-12-18T01:46:29;-1.764705658;64.65301514
71551;DHT22;59367;48.414;9.872;2022-12-18T01:47:43;-1.764705658;64.67132568
71551;DHT22;59367;48.414;9.872;2022-12-18T01:48:54;-1.794078827;64.63012695
71551;DHT22;59367;48.414;9.872;2022-12-18T01:50:06;-1.780727386;64.56604004
71551;DHT22;59367;48.414;9.872;2022-12-18T01:51:14;-1.764705658;64.5690918
71551;DHT22;59367;48.414;9.872;2022-12-18T01:52:23;-1.780727386;64.6697998
71551;DHT22;59367;48.414;9.872;2022-12-18T01:53:31;-1.751354218;64.69268799
71551;DHT22;59367;48.414;9.872;2022-12-18T01:54:39;-1.738002777;64.66522217
71551;DHT22;59367;48.414;9.872;2022-12-18T01:55:49;-1.794078827;64.64233398
71551;DHT22;59367;48.414;9.872;2022-12-18T01:56:57;-1.751354218;64.60723877
71551;DHT22;59367;48.414;9.872;2022-12-18T01:58:05;-1.764705658;64.5980835
71551;DHT22;59367;48.414;9.872;2022-12-18T01:59:14;-1.738002777;64.71252441
71551;DHT22;59367;48.414;9.872;2022-12-18T02:00:23;-1.751354218;64.72015381
71551;DHT22;59367;48.414;9.872;2022-12-18T02:01:32;-1.738002777;64.62860107
71551;DHT22;59367;48.414;9.872;2022-12-18T02:02:41;-1.751354218;64.41345215
71551;DHT22;59367;48.414;9.872;2022-12-18T02:03:50;-1.764705658;64.38293457
71551;DHT22;59367;48.414;9.872;2022-12-18T02:04:58;-1.764705658;64.30053711
71551;DHT22;59367;48.414;9.872;2022-12-18T02:06:12;-1.780727386;64.31732178
71551;DHT22;59367;48.414;9.872;2022-12-18T02:07:28;-1.780727386;64.45465088
71551;DHT22;59367;48.414;9.872;2022-12-18T02:08:43;-1.764705658;64.3081665
71551;DHT22;59367;48.414;9.872;2022-12-18T02:09:58;-1.807430267;64.36920166
71551;DHT22;59367;48.414;9.872;2022-12-18T02:11:10;-1.780727386;64.44702148
71551;DHT22;59367;48.414;9.872;2022-12-18T02:12:23;-1.764705658;64.41040039
71551;DHT22;59367;48.414;9.872;2022-12-18T02:13:36;-1.794078827;64.26696777
71551;DHT22;59367;48.414;9.872;2022-12-18T02:14:49;-1.780727386;64.33563232
71551;DHT22;59367;48.414;9.872;2022-12-18T02:16:05;-1.751354218;64.32800293
71551;DHT22;59367;48.414;9.872;2022-12-18T02:17:18;-1.751354218;64.24560547
71551;DHT22;59367;48.414;9.872;2022-12-18T02:18:30;-1.751354218;64.07012939
71551;DHT22;59367;48.414;9.872;2022-12-18T02:20:03;-1.751354218;64.04876709
71551;DHT22;59367;48.414;9.872;2022-12-18T02:21:25;-1.764705658;63.76037598
71551;DHT22;59367;48.414;9.872;2022-12-18T02:22:42;-1.807430267;63.98773193
71551;DHT22;59367;48.414;9.872;2022-12-18T02:24:01;-1.780727386;64.09301758
71551;DHT22;59367;48.414;9.872;2022-12-18T02:25:29;-1.780727386;63.97094727
71551;DHT22;59367;48.414;9.872;2022-12-18T02:26:40;-1.794078827;63.8961792
71551;DHT22;59367;48.414;9.872;2022-12-18T02:27:50;-1.820781708;63.98773193
71551;DHT22;59367;48.414;9.872;2022-12-18T02:29:03;-1.820781708;64.10675049
71551;DHT22;59367;48.414;9.872;2022-12-18T02:30:13;-1.863506317;64.11132813
71551;DHT22;59367;48.414;9.872;2022-12-18T02:31:26;-1.836803436;64.29138184
71551;DHT22;59367;48.414;9.872;2022-12-18T02:32:46;-1.807430267;64.26696777
71551;DHT22;59367;48.414;9.872;2022-12-18T02:33:56;-1.807430267;64.1998291
71551;DHT22;59367;48.414;9.872;2022-12-18T02:35:11;-1.807430267;64.15405273
71551;DHT22;59367;48.414;9.872;2022-12-18T02:36:19;-1.780727386;64.21356201
71551;DHT22;59367;48.414;9.872;2022-12-18T02:37:29;-1.780727386;64.23187256
71551;DHT22;59367;48.414;9.872;2022-12-18T02:38:38;-1.764705658;64.3081665
71551;DHT22;59367;48.414;9.872;2022-12-18T02:39:48;-1.780727386;64.23187256
71551;DHT22;59367;48.414;9.872;2022-12-18T02:40:57;-1.764705658;64.14337158
71551;DHT22;59367;48.414;9.872;2022-12-18T02:42:05;-1.738002777;64.21813965
71551;DHT22;59367;48.414;9.872;2022-12-18T02:43:18;-1.764705658;64.28070068
71551;DHT22;59367;48.414;9.872;2022-12-18T02:44:25;-1.751354218;64.2074585
71551;DHT22;59367;48.414;9.872;2022-12-18T02:45:33;-1.764705658;64.32800293
71551;DHT22;59367;48.414;9.872;2022-12-18T02:46:43;-1.764705658;64.43786621
71551;DHT22;59367;48.414;9.872;2022-12-18T02:47:52;-1.724651337;64.53704834
71551;DHT22;59367;48.414;9.872;2022-12-18T02:49:12;-1.738002777;64.50653076
71551;DHT22;59367;48.414;9.872;2022-12-18T02:50:30;-1.724651337;64.4241333
71551;DHT22;59367;48.414;9.872;2022-12-18T02:51:49;-1.681926727;64.39208984
71551;DHT22;59367;48.414;9.872;2022-12-18T02:53:06;-1.695278168;64.33563232
71551;DHT22;59367;48.414;9.872;2022-12-18T02:54:24;-1.652553558;64.34173584
71551;DHT22;59367;48.414;9.872;2022-12-18T02:55:45;-1.652553558;64.36920166
71551;DHT22;59367;48.414;9.872;2022-12-18T02:56:57;-1.681926727;64.41345215
71551;DHT22;59367;48.414;9.872;2022-12-18T02:58:10;-1.652553558;64.55535889
71551;DHT22;59367;48.414;9.872;2022-12-18T02:59:23;-1.665904999;64.65759277
71551;DHT22;59367;48.414;9.872;2022-12-18T03:00:37;-1.652553558;64.52789307
71551;DHT22;59367;48.414;9.872;2022-12-18T03:01:51;-1.639202118;64.39971924
71551;DHT22;59367;48.414;9.872;2022-12-18T03:03:03;-1.625850677;64.35394287
71551;DHT22;59367;48.414;9.872;2022-12-18T03:04:17;-1.639202118;64.39971924
71551;DHT22;59367;48.414;9.872;2022-12-18T03:05:34;-1.596473694;64.46075439
71551;DHT22;59367;48.414;9.872;2022-12-18T03:06:46;-1.596473694;64.58892822
71551;DHT22;59367;48.414;9.872;2022-12-18T03:07:57;-1.596473694;64.74761963
71551;DHT22;59367;48.414;9.872;2022-12-18T03:09:08;-1.569770813;64.83612061
71551;DHT22;59367;48.414;9.872;2022-12-18T03:10:19;-1.596473694;64.91699219
71551;DHT22;59367;48.414;9.872;2022-12-18T03:11:30;-1.596473694;64.70336914
71551;DHT22;59367;48.414;9.872;2022-12-18T03:12:40;-1.609825134;64.793396
71551;DHT22;59367;48.414;9.872;2022-12-18T03:13:52;-1.583122253;64.80712891
71551;DHT22;59367;48.414;9.872;2022-12-18T03:15:06;-1.583122253;64.6484375
71551;DHT22;59367;48.414;9.872;2022-12-18T03:16:18;-1.569770813;64.70794678
71551;DHT22;59367;48.414;9.872;2022-12-18T03:17:30;-1.569770813;64.74456787
71551;DHT22;59367;48.414;9.872;2022-12-18T03:18:42;-1.527046204;64.80712891
71551;DHT22;59367;48.414;9.872;2022-12-18T03:19:53;-1.553749084;64.84985352
71551;DHT22;59367;48.414;9.872;2022-12-18T03:21:06;-1.527046204;64.83459473
71551;DHT22;59367;48.414;9.872;2022-12-18T03:22:15;-1.511024475;64.77203369
71551;DHT22;59367;48.414;9.872;2022-12-18T03:23:25;-1.497673035;64.83917236
71551;DHT22;59367;48.414;9.872;2022-12-18T03:24:36;-1.497673035;64.90478516
71551;DHT22;59367;48.414;9.872;2022-12-18T03:25:46;-1.484321594;64.92614746
71551;DHT22;59367;48.414;9.872;2022-12-18T03:26:57;-1.470970154;64.85443115
71551;DHT22;59367;48.414;9.872;2022-12-18T03:28:07;-1.454948425;64.78118896
71551;DHT22;59367;48.414;9.872;2022-12-18T03:29:21;-1.454948425;64.76287842
71551;DHT22;59367;48.414;9.872;2022-12-18T03:30:31;-1.414894104;64.77966309
71551;DHT22;59367;48.414;9.872;2022-12-18T03:31:41;-1.414894104;64.74304199
71551;DHT22;59367;48.414;9.872;2022-12-18T03:32:53;-1.428245544;64.6194458
71551;DHT22;59367;48.414;9.872;2022-12-18T03:34:08;-1.414894104;64.70336914
71551;DHT22;59367;48.414;9.872;2022-12-18T03:35:21;-1.385520935;64.67132568
71551;DHT22;59367;48.414;9.872;2022-12-18T03:36:29;-1.441596985;64.55078125
71551;DHT22;59367;48.414;9.872;2022-12-18T03:37:37;-1.441596985;64.57824707
71551;DHT22;59367;48.414;9.872;2022-12-18T03:38:45;-1.414894104;64.6484375
71551;DHT22;59367;48.414;9.872;2022-12-18T03:39:52;-1.385520935;64.54315186
71551;DHT22;59367;48.414;9.872;2022-12-18T03:41:03;-1.398872375;64.58740234
71551;DHT22;59367;48.414;9.872;2022-12-18T03:42:20;-1.398872375;64.57824707
71551;DHT22;59367;48.414;9.872;2022-12-18T03:43:40;-1.414894104;64.58282471
71551;DHT22;59367;48.414;9.872;2022-12-18T03:44:57;-1.441596985;64.68353271
71551;DHT22;59367;48.414;9.872;2022-12-18T03:46:10;-1.441596985;64.3737793
71551;DHT22;59367;48.414;9.872;2022-12-18T03:47:25;-1.441596985;64.45922852
71551;DHT22;59367;48.414;9.872;2022-12-18T03:48:37;-1.441596985;64.29138184
71551;DHT22;59367;48.414;9.872;2022-12-18T03:49:50;-1.441596985;64.3737793
71551;DHT22;59367;48.414;9.872;2022-12-18T03:51:01;-1.428245544;64.4317627
71551;DHT22;59367;48.414;9.872;2022-12-18T03:52:13;-1.428245544;64.53704834
71551;DHT22;59367;48.414;9.872;2022-12-18T03:53:31;-1.398872375;64.5111084
71551;DHT22;59367;48.414;9.872;2022-12-18T03:54:43;-1.385520935;64.58892822
71551;DHT22;59367;48.414;9.872;2022-12-18T03:55:52;-1.414894104;64.46380615
71551;DHT22;59367;48.414;9.872;2022-12-18T03:57:04;-1.428245544;64.41497803
71551;DHT22;59367;48.414;9.872;2022-12-18T03:58:17;-1.414894104;64.08996582
71551;DHT22;59367;48.414;9.872;2022-12-18T03:59:26;-1.441596985;64.05792236
71551;DHT22;59367;48.414;9.872;2022-12-18T04:00:35;-1.398872375;64.01672363
71551;DHT22;59367;48.414;9.872;2022-12-18T04:01:46;-1.414894104;64.03503418
71551;DHT22;59367;48.414;9.872;2022-12-18T04:02:55;-1.441596985;63.8885498
71551;DHT22;59367;48.414;9.872;2022-12-18T04:04:06;-1.414894104;63.99841309
71551;DHT22;59367;48.414;9.872;2022-12-18T04:05:15;-1.398872375;64.01672363
71551;DHT22;59367;48.414;9.872;2022-12-18T04:06:24;-1.398872375;64.04724121
71551;DHT22;59367;48.414;9.872;2022-12-18T04:07:33;-1.428245544;64.00299072
71551;DHT22;59367;48.414;9.872;2022-12-18T04:08:41;-1.428245544;64.14489746
71551;DHT22;59367;48.414;9.872;2022-12-18T04:09:50;-1.428245544;64.17236328
71551;DHT22;59367;48.414;9.872;2022-12-18T04:10:59;-1.428245544;64.15405273
71551;DHT22;59367;48.414;9.872;2022-12-18T04:12:07;-1.428245544;64.2364502
71551;DHT22;59367;48.414;9.872;2022-12-18T04:13:15;-1.428245544;64.28222656
71551;DHT22;59367;48.414;9.872;2022-12-18T04:14:28;-1.441596985;64.27154541
71551;DHT22;59367;48.414;9.872;2022-12-18T04:15:37;-1.414894104;64.27612305
71551;DHT22;59367;48.414;9.872;2022-12-18T04:16:45;-1.398872375;64.26239014
71551;DHT22;59367;48.414;9.872;2022-12-18T04:17:53;-1.414894104;64.30511475
71551;DHT22;59367;48.414;9.872;2022-12-18T04:19:01;-1.385520935;64.3371582
71551;DHT22;59367;48.414;9.872;2022-12-18T04:20:09;-1.398872375;64.41040039
71551;DHT22;59367;48.414;9.872;2022-12-18T04:21:17;-1.428245544;64.11743164
71551;DHT22;59367;48.414;9.872;2022-12-18T04:22:24;-1.454948425;64.26849365
71551;DHT22;59367;48.414;9.872;2022-12-18T04:23:31;-1.454948425;64.28985596
71551;DHT22;59367;48.414;9.872;2022-12-18T04:24:39;-1.428245544;64.1998291
71551;DHT22;59367;48.414;9.872;2022-12-18T04:25:47;-1.414894104;64.23950195
71551;DHT22;59367;48.414;9.872;2022-12-18T04:26:54;-1.414894104;64.19372559
71551;DHT22;59367;48.414;9.872;2022-12-18T04:28:02;-1.414894104;64.08996582
71551;DHT22;59367;48.414;9.872;2022-12-18T04:29:09;-1.398872375;64.10217285
71551;DHT22;59367;48.414;9.872;2022-12-18T04:30:17;-1.428245544;64.07928467
71551;DHT22;59367;48.414;9.872;2022-12-18T04:31:25;-1.428245544;64.1998291
71551;DHT22;59367;48.414;9.872;2022-12-18T04:32:32;-1.441596985;64.3737793
71551;DHT22;59367;48.414;9.872;2022-12-18T04:33:40;-1.484321594;64.26391602
71551;DHT22;59367;48.414;9.872;2022-12-18T04:34:47;-1.428245544;64.30358887
71551;DHT22;59367;48.414;9.872;2022-12-18T04:35:55;-1.441596985;64.3081665
71551;DHT22;59367;48.414;9.872;2022-12-18T04:37:02;-1.454948425;64.26239014
71551;DHT22;59367;48.414;9.872;2022-12-18T04:38:10;-1.428245544;64.30358887
71551;DHT22;59367;48.414;9.872;2022-12-18T04:39:18;-1.470970154;64.09912109
71551;DHT22;59367;48.414;9.872;2022-12-18T04:40:25;-1.454948425;64.10217285
71551;DHT22;59367;48.414;9.872;2022-12-18T04:41:32;-1.470970154;64.07165527
71551;DHT22;59367;48.414;9.872;2022-12-18T04:42:40;-1.428245544;64.04266357
71551;DHT22;59367;48.414;9.872;2022-12-18T04:43:47;-1.484321594;63.85498047
71551;DHT22;59367;48.414;9.872;2022-12-18T04:44:55;-1.511024475;63.79547119
71551;DHT22;59367;48.414;9.872;2022-12-18T04:46:08;-1.583122253;63.93890381
71551;DHT22;59367;48.414;9.872;2022-12-18T04:47:16;-1.569770813;64.13879395
71551;DHT22;59367;48.414;9.872;2022-12-18T04:48:23;-1.583122253;64.14489746
71551;DHT22;59367;48.414;9.872;2022-12-18T04:49:31;-1.596473694;64.32189941
71551;DHT22;59367;48.414;9.872;2022-12-18T04:50:38;-1.609825134;64.46838379
71551;DHT22;59367;48.414;9.872;2022-12-18T04:51:46;-1.609825134;64.60723877
71551;DHT22;59367;48.414;9.872;2022-12-18T04:52:54;-1.625850677;64.72625732
71551;DHT22;59367;48.414;9.872;2022-12-18T04:54:01;-1.609825134;64.72930908
71551;DHT22;59367;48.414;9.872;2022-12-18T04:55:09;-1.609825134;64.86816406
71551;DHT22;59367;48.414;9.872;2022-12-18T04:56:18;-1.609825134;64.99023438
71551;DHT22;59367;48.414;9.872;2022-12-18T04:57:25;-1.609825134;65.10009766
71551;DHT22;59367;48.414;9.872;2022-12-18T04:58:33;-1.652553558;65.25268555
71551;DHT22;59367;48.414;9.872;2022-12-18T04:59:40;-1.681926727;65.34423828
71551;DHT22;59367;48.414;9.872;2022-12-18T05:00:48;-1.652553558;65.39306641
71551;DHT22;59367;48.414;9.872;2022-12-18T05:01:55;-1.639202118;65.42205811
71551;DHT22;59367;48.414;9.872;2022-12-18T05:03:04;-1.639202118;65.42205811
71551;DHT22;59367;48.414;9.872;2022-12-18T05:04:11;-1.639202118;65.47698975
71551;DHT22;59367;48.414;9.872;2022-12-18T05:05:19;-1.652553558;65.51361084
71551;DHT22;59367;48.414;9.872;2022-12-18T05:06:26;-1.639202118;65.49835205
71551;DHT22;59367;48.414;9.872;2022-12-18T05:07:34;-1.596473694;65.39306641
71551;DHT22;59367;48.414;9.872;2022-12-18T05:08:41;-1.639202118;65.31982422
71551;DHT22;59367;48.414;9.872;2022-12-18T05:09:49;-1.681926727;65.53039551
71551;DHT22;59367;48.414;9.872;2022-12-18T05:11:02;-1.652553558;65.55938721
71551;DHT22;59367;48.414;9.872;2022-12-18T05:12:10;-1.639202118;65.58074951
71551;DHT22;59367;48.414;9.872;2022-12-18T05:13:17;-1.665904999;65.51208496
71551;DHT22;59367;48.414;9.872;2022-12-18T05:14:25;-1.639202118;65.50445557
71551;DHT22;59367;48.414;9.872;2022-12-18T05:15:34;-1.625850677;65.49987793
71551;DHT22;59367;48.414;9.872;2022-12-18T05:16:41;-1.609825134;65.50292969
71551;DHT22;59367;48.414;9.872;2022-12-18T05:17:48;-1.625850677;65.53649902
71551;DHT22;59367;48.414;9.872;2022-12-18T05:18:56;-1.724651337;65.64483643
71551;DHT22;59367;48.414;9.872;2022-12-18T05:20:03;-1.751354218;65.93933105
71551;DHT22;59367;48.414;9.872;2022-12-18T05:21:11;-1.807430267;66.20330811
71551;DHT22;59367;48.414;9.872;2022-12-18T05:22:19;-1.780727386;66.17584229
71551;DHT22;59367;48.414;9.872;2022-12-18T05:23:27;-1.807430267;66.31317139
71551;DHT22;59367;48.414;9.872;2022-12-18T05:24:35;-1.794078827;66.25823975
71551;DHT22;59367;48.414;9.872;2022-12-18T05:25:42;-1.780727386;66.13922119
71551;DHT22;59367;48.414;9.872;2022-12-18T05:26:49;-1.780727386;66.04766846
71551;DHT22;59367;48.414;9.872;2022-12-18T05:27:57;-1.807430267;66.17279053
71551;DHT22;59367;48.414;9.872;2022-12-18T05:29:04;-1.820781708;66.32232666
71551;DHT22;59367;48.414;9.872;2022-12-18T05:30:13;-1.794078827;66.31469727
71551;DHT22;59367;48.414;9.872;2022-12-18T05:31:21;-1.794078827;66.29638672
71551;DHT22;59367;48.414;9.872;2022-12-18T05:32:28;-1.751354218;66.24603271
71551;DHT22;59367;48.414;9.872;2022-12-18T05:33:37;-1.738002777;66.11785889
71551;DHT22;59367;48.414;9.872;2022-12-18T05:34:45;-1.751354218;66.04003906
71551;DHT22;59367;48.414;9.872;2022-12-18T05:35:58;-1.738002777;65.98815918
71551;DHT22;59367;48.414;9.872;2022-12-18T05:37:06;-1.724651337;65.95306396
71551;DHT22;59367;48.414;9.872;2022-12-18T05:38:13;-1.738002777;65.97900391
71551;DHT22;59367;48.414;9.872;2022-12-18T05:39:21;-1.708629608;65.88897705
71551;DHT22;59367;48.414;9.872;2022-12-18T05:40:28;-1.695278168;66.07666016
71551;DHT22;59367;48.414;9.872;2022-12-18T05:41:35;-1.764705658;66.07666016
71551;DHT22;59367;48.414;9.872;2022-12-18T05:42:43;-1.794078827;66.33300781
71551;DHT22;59367;48.414;9.872;2022-12-18T05:43:50;-1.780727386;66.16821289
71551;DHT22;59367;48.414;9.872;2022-12-18T05:44:58;-1.764705658;66.00189209
71551;DHT22;59367;48.414;9.872;2022-12-18T05:46:07;-1.820781708;66.17126465
71551;DHT22;59367;48.414;9.872;2022-12-18T05:47:15;-1.836803436;66.27197266
71551;DHT22;59367;48.414;9.872;2022-12-18T05:48:23;-1.807430267;66.17279053
71551;DHT22;59367;48.414;9.872;2022-12-18T05:49:30;-1.807430267;66.09802246
71551;DHT22;59367;48.414;9.872;2022-12-18T05:50:41;-1.807430267;65.95153809
71551;DHT22;59367;48.414;9.872;2022-12-18T05:51:49;-1.794078827;66.02630615
71551;DHT22;59367;48.414;9.872;2022-12-18T05:52:56;-1.863506317;66.32385254
71551;DHT22;59367;48.414;9.872;2022-12-18T05:54:04;-1.87953186;66.36962891
71551;DHT22;59367;48.414;9.872;2022-12-18T05:55:11;-1.863506317;66.2322998
71551;DHT22;59367;48.414;9.872;2022-12-18T05:56:20;-1.850154877;66.21398926
71551;DHT22;59367;48.414;9.872;2022-12-18T05:57:28;-1.820781708;66.09802246
71551;DHT22;59367;48.414;9.872;2022-12-18T05:58:36;-1.836803436;65.98358154
71551;DHT22;59367;48.414;9.872;2022-12-18T05:59:44;-1.836803436;66.02020264
71551;DHT22;59367;48.414;9.872;2022-12-18T06:00:51;-1.807430267;66.10870361
71551;DHT22;59367;48.414;9.872;2022-12-18T06:01:59;-1.780727386;65.98968506
71551;DHT22;59367;48.414;9.872;2022-12-18T06:03:07;-1.780727386;65.96221924
71551;DHT22;59367;48.414;9.872;2022-12-18T06:04:14;-1.794078827;65.92407227
71551;DHT22;59367;48.414;9.872;2022-12-18T06:05:22;-1.780727386;65.94390869